sensor_id;sensor_type;location;lat;lon;timestamp;pressure;altitude;pressure_sealevel;temperature;humidity
11971;BME280;6045;42.682;23.294;2023-11-19T00:02:25;94617.44;;;3.88;75.92
11971;BME280;6045;42.682;23.294;2023-11-19T00:04:52;94611.09;;;3.82;75.91
11971;BME280;6045;42.682;23.294;2023-11-19T00:07:19;94622.47;;;3.83;76.21
11971;BME280;6045;42.682;23.294;2023-11-19T00:09:46;94604.19;;;3.81;76.52
11971;BME280;6045;42.682;23.294;2023-11-19T00:12:14;94601.72;;;3.80;75.80
11971;BME280;6045;42.682;23.294;2023-11-19T00:14:41;94600.88;;;3.79;76.15
11971;BME280;6045;42.682;23.294;2023-11-19T00:17:08;94598.91;;;3.81;76.15
11971;BME280;6045;42.682;23.294;2023-11-19T00:19:35;94613.97;;;3.87;76.35
11971;BME280;6045;42.682;23.294;2023-11-19T00:22:02;94610.72;;;3.85;75.54
11971;BME280;6045;42.682;23.294;2023-11-19T00:24:29;94613.72;;;3.82;75.56
11971;BME280;6045;42.682;23.294;2023-11-19T00:26:56;94611.34;;;3.87;75.43
11971;BME280;6045;42.682;23.294;2023-11-19T00:29:24;94610.09;;;3.83;75.55
11971;BME280;6045;42.682;23.294;2023-11-19T00:31:51;94623.06;;;3.78;75.45
11971;BME280;6045;42.682;23.294;2023-11-19T00:34:18;94623.78;;;3.72;75.35
11971;BME280;6045;42.682;23.294;2023-11-19T00:36:47;94623.63;;;3.74;75.25
11971;BME280;6045;42.682;23.294;2023-11-19T00:39:14;94612.69;;;3.77;75.34
11971;BME280;6045;42.682;23.294;2023-11-19T00:41:41;94630.34;;;3.76;75.90
11971;BME280;6045;42.682;23.294;2023-11-19T00:44:08;94628.19;;;3.86;75.93
11971;BME280;6045;42.682;23.294;2023-11-19T00:46:36;94612.69;;;3.77;75.86
11971;BME280;6045;42.682;23.294;2023-11-19T00:49:03;94621.03;;;3.80;76.55
11971;BME280;6045;42.682;23.294;2023-11-19T00:51:30;94610.34;;;3.88;76.91
11971;BME280;6045;42.682;23.294;2023-11-19T00:53:58;94613.16;;;3.87;76.47
11971;BME280;6045;42.682;23.294;2023-11-19T00:56:24;94612.28;;;3.80;76.20
11971;BME280;6045;42.682;23.294;2023-11-19T00:58:51;94611.72;;;3.84;75.94
11971;BME280;6045;42.682;23.294;2023-11-19T01:01:18;94610.34;;;3.88;75.81
11971;BME280;6045;42.682;23.294;2023-11-19T01:03:46;94620.53;;;3.91;75.68
11971;BME280;6045;42.682;23.294;2023-11-19T01:06:13;94616.50;;;3.95;76.43
11971;BME280;6045;42.682;23.294;2023-11-19T01:08:42;94611.09;;;3.82;75.63
11971;BME280;6045;42.682;23.294;2023-11-19T01:11:19;94625.94;;;3.83;76.40
11971;BME280;6045;42.682;23.294;2023-11-19T01:13:47;94626.56;;;3.85;77.00
11971;BME280;6045;42.682;23.294;2023-11-19T01:16:14;94624.19;;;3.90;76.12
11971;BME280;6045;42.682;23.294;2023-11-19T01:18:40;94624.00;;;3.92;75.86
11971;BME280;6045;42.682;23.294;2023-11-19T01:21:08;94619.28;;;3.87;75.85
11971;BME280;6045;42.682;23.294;2023-11-19T01:23:35;94619.16;;;3.95;75.79
11971;BME280;6045;42.682;23.294;2023-11-19T01:26:03;94623.03;;;3.99;75.97
11971;BME280;6045;42.682;23.294;2023-11-19T01:28:30;94628.72;;;3.96;75.45
11971;BME280;6045;42.682;23.294;2023-11-19T01:30:57;94625.91;;;3.98;75.16
11971;BME280;6045;42.682;23.294;2023-11-19T01:33:24;94637.25;;;3.98;74.78
11971;BME280;6045;42.682;23.294;2023-11-19T01:35:51;94625.38;;;3.88;74.68
11971;BME280;6045;42.682;23.294;2023-11-19T01:38:19;94635.59;;;3.91;75.53
11971;BME280;6045;42.682;23.294;2023-11-19T01:40:46;94648.66;;;3.78;74.76
11971;BME280;6045;42.682;23.294;2023-11-19T01:43:31;94636.63;;;3.75;74.86
11971;BME280;6045;42.682;23.294;2023-11-19T01:45:58;94629.72;;;3.74;74.77
11971;BME280;6045;42.682;23.294;2023-11-19T01:48:25;94640.28;;;3.74;74.99
11971;BME280;6045;42.682;23.294;2023-11-19T01:50:53;94634.13;;;3.67;74.77
11971;BME280;6045;42.682;23.294;2023-11-19T01:53:21;94642.53;;;3.56;74.79
11971;BME280;6045;42.682;23.294;2023-11-19T01:55:48;94651.06;;;3.58;75.65
11971;BME280;6045;42.682;23.294;2023-11-19T01:58:15;94653.19;;;3.63;75.22
11971;BME280;6045;42.682;23.294;2023-11-19T02:00:44;94649.25;;;3.59;74.35
11971;BME280;6045;42.682;23.294;2023-11-19T02:03:11;94653.72;;;3.58;75.13
11971;BME280;6045;42.682;23.294;2023-11-19T02:05:39;94658.06;;;3.66;75.69
11971;BME280;6045;42.682;23.294;2023-11-19T02:08:07;94646.63;;;3.59;74.25
11971;BME280;6045;42.682;23.294;2023-11-19T02:10:35;94645.44;;;3.61;74.54
11971;BME280;6045;42.682;23.294;2023-11-19T02:13:02;94636.94;;;3.66;74.48
11971;BME280;6045;42.682;23.294;2023-11-19T02:15:31;94638.13;;;3.63;73.99
11971;BME280;6045;42.682;23.294;2023-11-19T02:18:19;94636.78;;;3.67;74.40
11971;BME280;6045;42.682;23.294;2023-11-19T02:20:47;94640.34;;;3.60;73.92
11971;BME280;6045;42.682;23.294;2023-11-19T02:23:14;94634.75;;;3.69;73.52
11971;BME280;6045;42.682;23.294;2023-11-19T02:25:43;94634.69;;;3.63;73.68
11971;BME280;6045;42.682;23.294;2023-11-19T02:28:16;94642.53;;;3.56;73.56
11971;BME280;6045;42.682;23.294;2023-11-19T02:30:43;94645.91;;;3.50;74.22
11971;BME280;6045;42.682;23.294;2023-11-19T02:33:10;94635.16;;;3.52;74.24
11971;BME280;6045;42.682;23.294;2023-11-19T02:35:38;94621.13;;;3.51;74.44
11971;BME280;6045;42.682;23.294;2023-11-19T02:38:06;94613.50;;;3.41;74.63
11971;BME280;6045;42.682;23.294;2023-11-19T02:40:33;94615.91;;;3.36;74.66
11971;BME280;6045;42.682;23.294;2023-11-19T02:43:00;94631.47;;;3.31;75.26
11971;BME280;6045;42.682;23.294;2023-11-19T02:45:31;94624.75;;;3.29;75.41
11971;BME280;6045;42.682;23.294;2023-11-19T02:47:58;94635.94;;;3.31;75.24
11971;BME280;6045;42.682;23.294;2023-11-19T02:50:26;94649.63;;;3.20;75.38
11971;BME280;6045;42.682;23.294;2023-11-19T02:52:55;94646.22;;;3.26;75.79
11971;BME280;6045;42.682;23.294;2023-11-19T02:55:23;94632.31;;;3.17;75.61
11971;BME280;6045;42.682;23.294;2023-11-19T02:57:50;94630.75;;;3.23;75.08
11971;BME280;6045;42.682;23.294;2023-11-19T03:00:19;94631.22;;;3.12;76.15
11971;BME280;6045;42.682;23.294;2023-11-19T03:02:51;94642.50;;;3.20;75.35
11971;BME280;6045;42.682;23.294;2023-11-19T03:05:25;94638.44;;;3.18;75.21
11971;BME280;6045;42.682;23.294;2023-11-19T03:07:56;94639.22;;;3.18;75.27
11971;BME280;6045;42.682;23.294;2023-11-19T03:10:23;94645.34;;;3.19;75.08
11971;BME280;6045;42.682;23.294;2023-11-19T03:12:50;94659.19;;;3.06;75.20
11971;BME280;6045;42.682;23.294;2023-11-19T03:15:17;94665.91;;;3.09;75.57
11971;BME280;6045;42.682;23.294;2023-11-19T03:17:46;94654.16;;;3.11;76.04
11971;BME280;6045;42.682;23.294;2023-11-19T03:20:15;94658.25;;;3.14;75.48
11971;BME280;6045;42.682;23.294;2023-11-19T03:22:42;94655.47;;;3.15;75.58
11971;BME280;6045;42.682;23.294;2023-11-19T03:25:09;94648.16;;;3.17;75.47
11971;BME280;6045;42.682;23.294;2023-11-19T03:27:37;94645.69;;;3.16;75.68
11971;BME280;6045;42.682;23.294;2023-11-19T03:30:07;94650.19;;;3.15;75.97
11971;BME280;6045;42.682;23.294;2023-11-19T03:32:35;94649.34;;;3.15;75.74
11971;BME280;6045;42.682;23.294;2023-11-19T03:35:02;94647.53;;;3.15;75.46
11971;BME280;6045;42.682;23.294;2023-11-19T03:37:31;94633.50;;;3.15;75.59
11971;BME280;6045;42.682;23.294;2023-11-19T03:39:59;94651.72;;;3.10;75.62
11971;BME280;6045;42.682;23.294;2023-11-19T03:42:26;94660.75;;;3.15;75.85
11971;BME280;6045;42.682;23.294;2023-11-19T03:44:53;94662.56;;;3.15;76.71
11971;BME280;6045;42.682;23.294;2023-11-19T03:47:20;94670.63;;;3.13;75.88
11971;BME280;6045;42.682;23.294;2023-11-19T03:49:48;94680.56;;;3.11;76.30
11971;BME280;6045;42.682;23.294;2023-11-19T03:52:15;94680.22;;;3.14;75.94
11971;BME280;6045;42.682;23.294;2023-11-19T03:54:43;94678.03;;;3.18;76.39
11971;BME280;6045;42.682;23.294;2023-11-19T03:57:11;94678.28;;;3.23;76.62
11971;BME280;6045;42.682;23.294;2023-11-19T03:59:38;94676.31;;;3.25;75.41
11971;BME280;6045;42.682;23.294;2023-11-19T04:02:04;94686.88;;;3.25;75.92
11971;BME280;6045;42.682;23.294;2023-11-19T04:04:32;94686.13;;;3.31;76.66
11971;BME280;6045;42.682;23.294;2023-11-19T04:07:00;94691.84;;;3.34;75.67
11971;BME280;6045;42.682;23.294;2023-11-19T04:09:28;94692.94;;;3.40;75.67
11971;BME280;6045;42.682;23.294;2023-11-19T04:11:56;94711.59;;;3.53;75.54
11971;BME280;6045;42.682;23.294;2023-11-19T04:14:23;94707.59;;;3.42;74.87
11971;BME280;6045;42.682;23.294;2023-11-19T04:16:50;94714.81;;;3.49;75.08
11971;BME280;6045;42.682;23.294;2023-11-19T04:19:19;94716.63;;;3.48;75.40
11971;BME280;6045;42.682;23.294;2023-11-19T04:21:46;94722.59;;;3.57;75.52
11971;BME280;6045;42.682;23.294;2023-11-19T04:24:13;94707.47;;;3.65;75.00
11971;BME280;6045;42.682;23.294;2023-11-19T04:26:41;94711.75;;;3.66;75.88
11971;BME280;6045;42.682;23.294;2023-11-19T04:29:11;94705.84;;;3.64;74.30
11971;BME280;6045;42.682;23.294;2023-11-19T04:31:38;94713.59;;;3.51;73.94
11971;BME280;6045;42.682;23.294;2023-11-19T04:34:05;94711.13;;;3.50;73.98
11971;BME280;6045;42.682;23.294;2023-11-19T04:36:33;94719.25;;;3.48;73.53
11971;BME280;6045;42.682;23.294;2023-11-19T04:39:00;94715.31;;;3.44;74.08
11971;BME280;6045;42.682;23.294;2023-11-19T04:41:28;94719.63;;;3.45;74.34
11971;BME280;6045;42.682;23.294;2023-11-19T04:43:54;94719.59;;;3.60;74.96
11971;BME280;6045;42.682;23.294;2023-11-19T04:46:23;94721.78;;;3.56;73.42
11971;BME280;6045;42.682;23.294;2023-11-19T04:48:50;94721.06;;;3.62;73.84
11971;BME280;6045;42.682;23.294;2023-11-19T04:51:17;94717.31;;;3.71;73.49
11971;BME280;6045;42.682;23.294;2023-11-19T04:53:43;94725.94;;;3.65;72.79
11971;BME280;6045;42.682;23.294;2023-11-19T04:56:11;94724.59;;;3.69;73.83
11971;BME280;6045;42.682;23.294;2023-11-19T04:58:38;94717.13;;;3.58;73.03
11971;BME280;6045;42.682;23.294;2023-11-19T05:01:05;94724.13;;;3.66;73.25
11971;BME280;6045;42.682;23.294;2023-11-19T05:03:34;94728.78;;;3.64;73.10
11971;BME280;6045;42.682;23.294;2023-11-19T05:06:01;94727.34;;;3.61;72.13
11971;BME280;6045;42.682;23.294;2023-11-19T05:08:28;94754.78;;;3.60;72.45
11971;BME280;6045;42.682;23.294;2023-11-19T05:10:55;94758.34;;;3.53;72.63
11971;BME280;6045;42.682;23.294;2023-11-19T05:13:23;94752.78;;;3.47;72.97
11971;BME280;6045;42.682;23.294;2023-11-19T05:15:50;94748.03;;;3.43;72.94
11971;BME280;6045;42.682;23.294;2023-11-19T05:18:17;94751.69;;;3.42;72.86
11971;BME280;6045;42.682;23.294;2023-11-19T05:20:46;94735.75;;;3.35;72.61
11971;BME280;6045;42.682;23.294;2023-11-19T05:23:13;94745.63;;;3.77;83.82
11971;BME280;6045;42.682;23.294;2023-11-19T05:25:39;94733.72;;;4.66;92.50
11971;BME280;6045;42.682;23.294;2023-11-19T05:28:06;94736.50;;;5.41;88.38
11971;BME280;6045;42.682;23.294;2023-11-19T05:30:33;94730.31;;;6.22;84.40
11971;BME280;6045;42.682;23.294;2023-11-19T05:33:00;94734.09;;;6.54;74.56
11971;BME280;6045;42.682;23.294;2023-11-19T05:35:27;94735.69;;;5.81;65.37
11971;BME280;6045;42.682;23.294;2023-11-19T05:37:55;94740.06;;;5.20;66.72
11971;BME280;6045;42.682;23.294;2023-11-19T05:40:22;94737.38;;;4.93;69.96
11971;BME280;6045;42.682;23.294;2023-11-19T05:42:49;94740.03;;;4.65;70.31
11971;BME280;6045;42.682;23.294;2023-11-19T05:45:16;94750.75;;;4.57;70.00
11971;BME280;6045;42.682;23.294;2023-11-19T05:47:43;94758.19;;;4.26;70.54
11971;BME280;6045;42.682;23.294;2023-11-19T05:50:10;94770.69;;;4.17;71.82
11971;BME280;6045;42.682;23.294;2023-11-19T05:52:37;94759.16;;;4.03;71.77
11971;BME280;6045;42.682;23.294;2023-11-19T05:55:06;94761.44;;;4.06;73.01
11971;BME280;6045;42.682;23.294;2023-11-19T05:57:35;94762.53;;;3.97;73.56
11971;BME280;6045;42.682;23.294;2023-11-19T06:00:03;94760.81;;;3.90;73.21
11971;BME280;6045;42.682;23.294;2023-11-19T06:02:32;94764.28;;;3.90;73.42
11971;BME280;6045;42.682;23.294;2023-11-19T06:04:59;94781.16;;;3.89;73.11
11971;BME280;6045;42.682;23.294;2023-11-19T06:07:26;94777.91;;;3.58;72.59
11971;BME280;6045;42.682;23.294;2023-11-19T06:09:54;94787.56;;;3.51;73.19
11971;BME280;6045;42.682;23.294;2023-11-19T06:12:22;94793.22;;;3.48;74.30
11971;BME280;6045;42.682;23.294;2023-11-19T06:14:49;94783.09;;;3.52;74.42
11971;BME280;6045;42.682;23.294;2023-11-19T06:17:15;94777.00;;;3.51;73.48
11971;BME280;6045;42.682;23.294;2023-11-19T06:19:42;94782.66;;;3.48;73.94
11971;BME280;6045;42.682;23.294;2023-11-19T06:22:10;94781.66;;;3.64;76.25
11971;BME280;6045;42.682;23.294;2023-11-19T06:24:37;94774.41;;;3.72;77.09
11971;BME280;6045;42.682;23.294;2023-11-19T06:27:04;94784.00;;;3.59;73.91
11971;BME280;6045;42.682;23.294;2023-11-19T06:29:32;94779.00;;;3.49;73.89
11971;BME280;6045;42.682;23.294;2023-11-19T06:31:59;94794.84;;;3.49;73.52
11971;BME280;6045;42.682;23.294;2023-11-19T06:34:25;94771.97;;;3.56;74.96
11971;BME280;6045;42.682;23.294;2023-11-19T06:36:52;94778.81;;;3.65;74.27
11971;BME280;6045;42.682;23.294;2023-11-19T06:39:19;94785.09;;;3.64;73.80
11971;BME280;6045;42.682;23.294;2023-11-19T06:41:46;94789.50;;;4.07;78.56
11971;BME280;6045;42.682;23.294;2023-11-19T06:44:14;94787.81;;;4.00;72.35
11971;BME280;6045;42.682;23.294;2023-11-19T06:46:42;94783.38;;;3.71;71.50
11971;BME280;6045;42.682;23.294;2023-11-19T06:49:09;94783.72;;;3.68;77.26
11971;BME280;6045;42.682;23.294;2023-11-19T06:51:35;94777.06;;;4.65;89.07
11971;BME280;6045;42.682;23.294;2023-11-19T06:54:07;94777.28;;;5.12;80.46
11971;BME280;6045;42.682;23.294;2023-11-19T06:56:33;94771.53;;;5.36;77.40
11971;BME280;6045;42.682;23.294;2023-11-19T06:59:00;94782.44;;;5.20;72.83
11971;BME280;6045;42.682;23.294;2023-11-19T07:01:27;94781.25;;;5.23;71.24
11971;BME280;6045;42.682;23.294;2023-11-19T07:03:55;94781.91;;;5.31;77.83
11971;BME280;6045;42.682;23.294;2023-11-19T07:06:23;94792.81;;;5.49;73.18
11971;BME280;6045;42.682;23.294;2023-11-19T07:08:50;94789.09;;;5.78;71.22
11971;BME280;6045;42.682;23.294;2023-11-19T07:11:16;94800.16;;;5.47;66.12
11971;BME280;6045;42.682;23.294;2023-11-19T07:13:43;94793.53;;;5.65;73.21
11971;BME280;6045;42.682;23.294;2023-11-19T07:16:14;94781.97;;;5.79;69.60
11971;BME280;6045;42.682;23.294;2023-11-19T07:18:40;94785.56;;;5.65;68.54
11971;BME280;6045;42.682;23.294;2023-11-19T07:21:10;94787.00;;;5.05;65.94
11971;BME280;6045;42.682;23.294;2023-11-19T07:23:37;94791.50;;;4.62;67.54
11971;BME280;6045;42.682;23.294;2023-11-19T07:26:05;94798.75;;;4.33;68.16
11971;BME280;6045;42.682;23.294;2023-11-19T07:28:33;94801.53;;;4.10;69.58
11971;BME280;6045;42.682;23.294;2023-11-19T07:31:00;94806.66;;;4.11;70.60
11971;BME280;6045;42.682;23.294;2023-11-19T07:33:27;94812.88;;;3.89;69.91
11971;BME280;6045;42.682;23.294;2023-11-19T07:35:55;94821.19;;;3.72;70.70
11971;BME280;6045;42.682;23.294;2023-11-19T07:38:23;94833.41;;;3.73;71.06
11971;BME280;6045;42.682;23.294;2023-11-19T07:40:50;94828.22;;;3.65;71.45
11971;BME280;6045;42.682;23.294;2023-11-19T07:43:17;94828.28;;;3.57;71.17
11971;BME280;6045;42.682;23.294;2023-11-19T07:45:43;94833.69;;;3.49;71.38
11971;BME280;6045;42.682;23.294;2023-11-19T07:48:11;94821.34;;;3.26;71.24
11971;BME280;6045;42.682;23.294;2023-11-19T07:50:39;94820.34;;;3.42;71.84
11971;BME280;6045;42.682;23.294;2023-11-19T07:53:06;94834.75;;;3.54;71.65
11971;BME280;6045;42.682;23.294;2023-11-19T07:55:35;94825.75;;;3.49;71.30
11971;BME280;6045;42.682;23.294;2023-11-19T07:58:02;94828.00;;;3.52;71.32
11971;BME280;6045;42.682;23.294;2023-11-19T08:00:29;94837.75;;;3.51;71.44
11971;BME280;6045;42.682;23.294;2023-11-19T08:02:56;94833.13;;;3.53;71.53
11971;BME280;6045;42.682;23.294;2023-11-19T08:05:23;94844.88;;;3.51;71.21
11971;BME280;6045;42.682;23.294;2023-11-19T08:07:50;94847.63;;;3.57;70.96
11971;BME280;6045;42.682;23.294;2023-11-19T08:10:18;94837.69;;;3.59;70.97
11971;BME280;6045;42.682;23.294;2023-11-19T08:12:46;94848.41;;;4.01;82.80
11971;BME280;6045;42.682;23.294;2023-11-19T08:15:13;94847.25;;;3.89;71.24
11971;BME280;6045;42.682;23.294;2023-11-19T08:17:41;94847.88;;;3.91;71.44
11971;BME280;6045;42.682;23.294;2023-11-19T08:20:08;94850.25;;;3.86;70.27
11971;BME280;6045;42.682;23.294;2023-11-19T08:22:36;94865.94;;;3.73;70.42
11971;BME280;6045;42.682;23.294;2023-11-19T08:25:03;94849.16;;;3.66;70.64
11971;BME280;6045;42.682;23.294;2023-11-19T08:27:30;94862.09;;;3.61;71.05
11971;BME280;6045;42.682;23.294;2023-11-19T08:29:59;94853.19;;;3.62;71.03
11971;BME280;6045;42.682;23.294;2023-11-19T08:32:26;94856.75;;;3.69;71.69
11971;BME280;6045;42.682;23.294;2023-11-19T08:34:53;94847.16;;;3.68;70.54
11971;BME280;6045;42.682;23.294;2023-11-19T08:37:21;94859.28;;;3.63;71.01
11971;BME280;6045;42.682;23.294;2023-11-19T08:39:48;94871.94;;;3.82;70.70
11971;BME280;6045;42.682;23.294;2023-11-19T08:42:15;94869.28;;;3.82;69.63
11971;BME280;6045;42.682;23.294;2023-11-19T08:44:42;94872.31;;;3.93;70.49
11971;BME280;6045;42.682;23.294;2023-11-19T08:47:13;94867.47;;;4.11;69.25
11971;BME280;6045;42.682;23.294;2023-11-19T08:49:43;94854.31;;;4.18;68.91
11971;BME280;6045;42.682;23.294;2023-11-19T08:52:10;94863.38;;;4.09;68.14
11971;BME280;6045;42.682;23.294;2023-11-19T08:54:37;94865.38;;;4.07;68.46
11971;BME280;6045;42.682;23.294;2023-11-19T08:57:04;94880.31;;;4.14;68.15
11971;BME280;6045;42.682;23.294;2023-11-19T08:59:32;94875.75;;;4.08;67.57
11971;BME280;6045;42.682;23.294;2023-11-19T09:01:59;94872.47;;;4.21;68.86
11971;BME280;6045;42.682;23.294;2023-11-19T09:04:28;94853.66;;;4.31;67.63
11971;BME280;6045;42.682;23.294;2023-11-19T09:06:57;94851.09;;;4.37;67.60
11971;BME280;6045;42.682;23.294;2023-11-19T09:09:24;94856.09;;;4.47;68.09
11971;BME280;6045;42.682;23.294;2023-11-19T09:11:51;94849.34;;;4.44;67.53
11971;BME280;6045;42.682;23.294;2023-11-19T09:14:17;94848.97;;;4.47;67.61
11971;BME280;6045;42.682;23.294;2023-11-19T09:16:47;94837.50;;;4.40;67.46
11971;BME280;6045;42.682;23.294;2023-11-19T09:19:14;94838.75;;;4.44;66.96
11971;BME280;6045;42.682;23.294;2023-11-19T09:21:42;94851.78;;;4.46;66.58
11971;BME280;6045;42.682;23.294;2023-11-19T09:24:09;94859.38;;;4.49;66.90
11971;BME280;6045;42.682;23.294;2023-11-19T09:26:36;94862.78;;;4.43;66.52
11971;BME280;6045;42.682;23.294;2023-11-19T09:29:05;94864.66;;;4.49;66.11
11971;BME280;6045;42.682;23.294;2023-11-19T09:31:34;94869.69;;;4.44;67.82
11971;BME280;6045;42.682;23.294;2023-11-19T09:34:01;94849.41;;;4.51;66.13
11971;BME280;6045;42.682;23.294;2023-11-19T09:36:28;94841.22;;;4.46;66.15
11971;BME280;6045;42.682;23.294;2023-11-19T09:38:56;94841.72;;;4.56;66.96
11971;BME280;6045;42.682;23.294;2023-11-19T09:41:25;94836.31;;;4.43;66.34
11971;BME280;6045;42.682;23.294;2023-11-19T09:43:53;94826.78;;;4.48;66.42
11971;BME280;6045;42.682;23.294;2023-11-19T09:46:21;94827.34;;;4.44;66.40
11971;BME280;6045;42.682;23.294;2023-11-19T09:48:51;94805.34;;;4.43;67.11
11971;BME280;6045;42.682;23.294;2023-11-19T09:51:20;94793.63;;;4.52;66.81
11971;BME280;6045;42.682;23.294;2023-11-19T09:53:47;94796.63;;;4.64;67.39
11971;BME280;6045;42.682;23.294;2023-11-19T09:56:16;94788.81;;;4.77;67.82
11971;BME280;6045;42.682;23.294;2023-11-19T09:58:43;94798.69;;;4.90;66.41
11971;BME280;6045;42.682;23.294;2023-11-19T10:01:10;94798.81;;;4.81;65.71
11971;BME280;6045;42.682;23.294;2023-11-19T10:03:38;94802.47;;;4.80;65.46
11971;BME280;6045;42.682;23.294;2023-11-19T10:06:07;94796.69;;;4.70;65.81
11971;BME280;6045;42.682;23.294;2023-11-19T10:08:34;94791.25;;;4.78;65.86
11971;BME280;6045;42.682;23.294;2023-11-19T10:11:01;94790.66;;;4.83;66.29
11971;BME280;6045;42.682;23.294;2023-11-19T10:13:29;94787.69;;;4.93;65.30
11971;BME280;6045;42.682;23.294;2023-11-19T10:15:56;94792.53;;;4.82;64.52
11971;BME280;6045;42.682;23.294;2023-11-19T10:18:25;94793.97;;;4.85;63.99
11971;BME280;6045;42.682;23.294;2023-11-19T10:20:52;94791.84;;;5.02;63.72
11971;BME280;6045;42.682;23.294;2023-11-19T10:23:20;94798.91;;;4.95;63.84
11971;BME280;6045;42.682;23.294;2023-11-19T10:25:47;94806.56;;;4.83;64.56
11971;BME280;6045;42.682;23.294;2023-11-19T10:28:15;94798.41;;;4.78;65.42
11971;BME280;6045;42.682;23.294;2023-11-19T10:30:44;94786.16;;;4.77;65.00
11971;BME280;6045;42.682;23.294;2023-11-19T10:33:11;94790.63;;;4.76;66.58
11971;BME280;6045;42.682;23.294;2023-11-19T10:35:53;94775.66;;;4.90;66.00
11971;BME280;6045;42.682;23.294;2023-11-19T10:38:20;94768.41;;;4.99;65.62
11971;BME280;6045;42.682;23.294;2023-11-19T10:40:47;94763.25;;;4.91;65.19
11971;BME280;6045;42.682;23.294;2023-11-19T10:43:14;94778.06;;;5.06;66.54
11971;BME280;6045;42.682;23.294;2023-11-19T10:45:41;94780.41;;;5.22;66.40
11971;BME280;6045;42.682;23.294;2023-11-19T10:48:10;94776.84;;;5.36;65.42
11971;BME280;6045;42.682;23.294;2023-11-19T10:50:40;94777.13;;;5.48;64.61
11971;BME280;6045;42.682;23.294;2023-11-19T10:53:08;94776.34;;;5.61;64.74
11971;BME280;6045;42.682;23.294;2023-11-19T10:55:36;94770.06;;;5.62;64.17
11971;BME280;6045;42.682;23.294;2023-11-19T10:58:05;94767.59;;;5.60;64.33
11971;BME280;6045;42.682;23.294;2023-11-19T11:00:42;94768.63;;;5.66;63.88
11971;BME280;6045;42.682;23.294;2023-11-19T11:03:16;94760.94;;;5.77;63.46
11971;BME280;6045;42.682;23.294;2023-11-19T11:05:46;94750.00;;;6.67;61.67
11971;BME280;6045;42.682;23.294;2023-11-19T11:08:14;94741.00;;;7.53;57.97
11971;BME280;6045;42.682;23.294;2023-11-19T11:10:44;94725.34;;;8.71;55.55
11971;BME280;6045;42.682;23.294;2023-11-19T11:13:13;94720.06;;;9.14;50.32
11971;BME280;6045;42.682;23.294;2023-11-19T11:15:41;94724.31;;;10.49;49.75
11971;BME280;6045;42.682;23.294;2023-11-19T11:18:08;94718.59;;;11.28;46.02
11971;BME280;6045;42.682;23.294;2023-11-19T11:20:37;94720.78;;;12.12;44.83
11971;BME280;6045;42.682;23.294;2023-11-19T11:23:26;94716.94;;;12.76;42.79
11971;BME280;6045;42.682;23.294;2023-11-19T11:26:09;94709.66;;;12.88;41.23
11971;BME280;6045;42.682;23.294;2023-11-19T11:28:44;94716.91;;;11.68;42.01
11971;BME280;6045;42.682;23.294;2023-11-19T11:31:26;94724.94;;;10.62;45.00
11971;BME280;6045;42.682;23.294;2023-11-19T11:34:49;94719.88;;;10.72;45.58
11971;BME280;6045;42.682;23.294;2023-11-19T11:37:27;94722.06;;;10.34;46.97
11971;BME280;6045;42.682;23.294;2023-11-19T11:39:58;94711.22;;;10.47;46.54
11971;BME280;6045;42.682;23.294;2023-11-19T11:42:33;94702.66;;;12.30;58.19
11971;BME280;6045;42.682;23.294;2023-11-19T11:45:01;94694.22;;;14.00;59.65
11971;BME280;6045;42.682;23.294;2023-11-19T11:50:31;94679.06;;;17.04;39.05
11971;BME280;6045;42.682;23.294;2023-11-19T11:53:19;94673.69;;;17.40;34.44
11971;BME280;6045;42.682;23.294;2023-11-19T11:55:58;94671.94;;;18.29;43.21
11971;BME280;6045;42.682;23.294;2023-11-19T11:58:31;94685.88;;;19.10;34.93
11971;BME280;6045;42.682;23.294;2023-11-19T12:01:00;94682.34;;;18.66;31.43
11971;BME280;6045;42.682;23.294;2023-11-19T12:03:28;94694.06;;;19.49;34.53
11971;BME280;6045;42.682;23.294;2023-11-19T12:05:57;94692.63;;;20.14;32.79
11971;BME280;6045;42.682;23.294;2023-11-19T12:08:29;94691.88;;;20.37;31.72
11971;BME280;6045;42.682;23.294;2023-11-19T12:10:58;94679.94;;;20.38;32.47
11971;BME280;6045;42.682;23.294;2023-11-19T12:16:13;94668.75;;;21.25;31.19
11971;BME280;6045;42.682;23.294;2023-11-19T12:18:40;94667.78;;;21.34;34.98
11971;BME280;6045;42.682;23.294;2023-11-19T12:21:09;94657.50;;;21.50;34.55
11971;BME280;6045;42.682;23.294;2023-11-19T12:23:45;94660.41;;;22.18;31.48
11971;BME280;6045;42.682;23.294;2023-11-19T12:26:32;94656.25;;;21.74;28.26
11971;BME280;6045;42.682;23.294;2023-11-19T12:28:59;94650.78;;;20.68;28.25
11971;BME280;6045;42.682;23.294;2023-11-19T12:31:29;94654.50;;;20.53;28.46
11971;BME280;6045;42.682;23.294;2023-11-19T12:33:56;94648.06;;;20.68;28.75
11971;BME280;6045;42.682;23.294;2023-11-19T12:36:23;94646.72;;;21.26;28.48
11971;BME280;6045;42.682;23.294;2023-11-19T12:38:51;94644.88;;;21.03;27.75
11971;BME280;6045;42.682;23.294;2023-11-19T12:41:18;94651.38;;;20.65;27.39
11971;BME280;6045;42.682;23.294;2023-11-19T12:43:48;94640.59;;;20.36;27.98
11971;BME280;6045;42.682;23.294;2023-11-19T12:46:20;94644.59;;;19.29;29.67
11971;BME280;6045;42.682;23.294;2023-11-19T12:48:47;94639.25;;;18.75;30.32
11971;BME280;6045;42.682;23.294;2023-11-19T12:51:14;94638.56;;;18.49;31.09
11971;BME280;6045;42.682;23.294;2023-11-19T12:53:48;94639.50;;;18.14;31.42
11971;BME280;6045;42.682;23.294;2023-11-19T12:56:16;94637.47;;;17.56;31.53
11971;BME280;6045;42.682;23.294;2023-11-19T12:58:43;94627.19;;;17.13;32.74
11971;BME280;6045;42.682;23.294;2023-11-19T13:01:15;94632.06;;;17.71;32.31
11971;BME280;6045;42.682;23.294;2023-11-19T13:03:42;94625.13;;;18.19;32.88
11971;BME280;6045;42.682;23.294;2023-11-19T13:06:11;94616.91;;;18.49;34.09
11971;BME280;6045;42.682;23.294;2023-11-19T13:08:38;94624.75;;;18.56;30.67
11971;BME280;6045;42.682;23.294;2023-11-19T13:11:06;94622.13;;;18.30;30.70
11971;BME280;6045;42.682;23.294;2023-11-19T13:13:57;94620.19;;;18.41;30.12
11971;BME280;6045;42.682;23.294;2023-11-19T13:16:25;94628.47;;;18.70;30.70
11971;BME280;6045;42.682;23.294;2023-11-19T13:18:52;94624.06;;;19.18;30.47
11971;BME280;6045;42.682;23.294;2023-11-19T13:21:19;94602.94;;;19.48;30.67
11971;BME280;6045;42.682;23.294;2023-11-19T13:23:46;94606.09;;;19.27;30.05